createdAt,value
2022-09-26T00:02:00.695Z,57.05
2022-09-26T00:04:07.062Z,57.02
2022-09-26T00:06:10.329Z,56.95
2022-09-26T00:08:11.768Z,57.05
2022-09-26T00:10:13.419Z,57.04
2022-09-26T00:12:23.444Z,57.18
2022-09-26T00:14:29.520Z,57.18
2022-09-26T00:16:31.475Z,57.14
2022-09-26T00:18:33.906Z,57.11
2022-09-26T00:20:36.907Z,57.06
2022-09-26T00:22:38.518Z,57.26
2022-09-26T00:24:40.151Z,57.17
2022-09-26T00:26:44.402Z,57.41
2022-09-26T00:28:46.566Z,57.15
2022-09-26T00:30:48.304Z,57.24
2022-09-26T00:32:49.868Z,57.21
2022-09-26T00:34:51.681Z,57.26
2022-09-26T00:36:53.306Z,57.40
2022-09-26T00:38:55.143Z,57.10
2022-09-26T00:40:57.024Z,57.43
2022-09-26T00:42:59.255Z,57.41
2022-09-26T00:45:00.965Z,57.51
2022-09-26T00:47:03.297Z,57.17
2022-09-26T00:49:24.291Z,57.50
2022-09-26T00:51:26.115Z,57.52
2022-09-26T00:53:35.671Z,57.51
2022-09-26T00:55:43.097Z,57.45
2022-09-26T00:57:56.501Z,57.67
2022-09-26T01:00:05.105Z,57.71
2022-09-26T01:02:07.118Z,57.71
2022-09-26T01:04:10.210Z,57.54
2022-09-26T01:06:12.924Z,57.72
2022-09-26T01:08:18.259Z,57.58
2022-09-26T01:10:21.186Z,57.69
2022-09-26T01:12:22.840Z,57.63
2022-09-26T01:14:24.906Z,57.65
2022-09-26T01:16:28.222Z,57.53
2022-09-26T01:18:30.844Z,57.64
2022-09-26T01:20:48.903Z,57.56
2022-09-26T01:23:10.482Z,57.61
2022-09-26T01:25:46.326Z,57.72
2022-09-26T01:27:57.260Z,57.64
2022-09-26T01:30:35.485Z,57.70
2022-09-26T01:33:02.432Z,57.57
2022-09-26T01:35:26.118Z,57.83
2022-09-26T01:37:36.377Z,57.66
2022-09-26T01:40:42.628Z,57.77
2022-09-26T01:43:03.005Z,57.62
2022-09-26T01:45:24.495Z,57.72
2022-09-26T01:47:31.645Z,57.57
2022-09-26T01:49:34.214Z,57.72
2022-09-26T01:52:14.592Z,57.39
2022-09-26T01:54:28.528Z,57.51
2022-09-26T01:56:36.942Z,57.44
2022-09-26T01:59:17.129Z,57.69
2022-09-26T02:01:27.805Z,57.57
2022-09-26T02:03:34.695Z,57.52
2022-09-26T02:05:48.920Z,57.51
2022-09-26T02:08:12.630Z,57.48
2022-09-26T02:10:22.077Z,57.42
2022-09-26T02:12:34.047Z,57.50
2022-09-26T02:14:38.068Z,57.58
2022-09-26T02:16:44.174Z,57.53
2022-09-26T02:18:53.431Z,57.46
2022-09-26T02:21:02.515Z,57.36
2022-09-26T02:23:05.996Z,57.40
2022-09-26T02:25:09.140Z,57.39
2022-09-26T02:27:15.764Z,57.40
2022-09-26T02:29:17.829Z,57.47
2022-09-26T02:31:23.716Z,57.39
2022-09-26T02:33:28.961Z,57.57
2022-09-26T02:35:49.196Z,57.51
2022-09-26T02:37:52.604Z,57.38
2022-09-26T02:39:55.967Z,57.57
2022-09-26T02:42:09.359Z,57.67
2022-09-26T02:44:25.794Z,57.73
2022-09-26T02:46:40.938Z,57.52
2022-09-26T02:49:27.826Z,57.71
2022-09-26T02:52:07.900Z,57.69
2022-09-26T02:54:32.993Z,57.78
2022-09-26T02:56:58.345Z,57.84
2022-09-26T02:59:09.137Z,57.77
2022-09-26T03:01:26.418Z,57.92
2022-09-26T03:03:39.101Z,57.63
2022-09-26T03:05:45.879Z,57.49
2022-09-26T03:07:56.671Z,57.82
2022-09-26T03:10:03.838Z,57.69
2022-09-26T03:12:07.878Z,57.86
2022-09-26T03:14:11.366Z,57.82
2022-09-26T03:16:14.755Z,57.72
2022-09-26T03:18:20.835Z,57.91
2022-09-26T03:20:23.463Z,57.93
2022-09-26T03:22:27.896Z,57.79
2022-09-26T03:24:30.646Z,57.78
2022-09-26T03:26:34.481Z,57.71
2022-09-26T03:28:38.201Z,57.74
2022-09-26T03:30:42.773Z,57.73
2022-09-26T03:32:57.919Z,57.77
2022-09-26T03:35:01.179Z,57.59
2022-09-26T03:37:02.818Z,57.88
2022-09-26T03:39:04.539Z,57.77
2022-09-26T03:41:28.084Z,57.96
2022-09-26T03:43:49.884Z,57.83
2022-09-26T03:45:51.995Z,58.01
2022-09-26T03:47:58.657Z,57.87
2022-09-26T03:50:01.185Z,58.38
2022-09-26T03:52:03.735Z,58.09
2022-09-26T03:54:05.653Z,58.08
2022-09-26T03:56:10.101Z,57.88
2022-09-26T03:58:11.859Z,57.93
2022-09-26T04:00:14.712Z,58.08
2022-09-26T04:02:21.147Z,57.95
2022-09-26T04:04:32.322Z,58.09
2022-09-26T04:06:34.107Z,57.94
2022-09-26T04:08:38.545Z,58.26
2022-09-26T04:10:40.527Z,58.08
2022-09-26T04:12:44.451Z,57.81
2022-09-26T04:14:46.685Z,57.87
2022-09-26T04:16:48.559Z,58.13
2022-09-26T04:18:58.731Z,57.95
2022-09-26T04:21:09.783Z,58.06
2022-09-26T04:23:13.541Z,58.03
2022-09-26T04:25:15.269Z,57.78
2022-09-26T04:27:18.914Z,57.94
2022-09-26T04:29:23.134Z,58.05
2022-09-26T04:31:46.383Z,57.95
2022-09-26T04:33:51.031Z,57.88
2022-09-26T04:35:52.873Z,57.89
2022-09-26T04:37:57.617Z,57.94
2022-09-26T04:39:59.569Z,57.95
2022-09-26T04:42:02.216Z,57.87
2022-09-26T04:44:03.908Z,58.03
2022-09-26T04:46:15.820Z,57.94
2022-09-26T04:48:21.281Z,57.98
2022-09-26T04:50:32.030Z,57.72
2022-09-26T04:52:41.932Z,57.93
2022-09-26T04:54:49.409Z,58.14
2022-09-26T04:56:51.220Z,58.04
2022-09-26T04:58:56.474Z,58.04
2022-09-26T05:01:07.364Z,58.08
2022-09-26T05:03:26.140Z,58.05
2022-09-26T05:05:30.991Z,58.08
2022-09-26T05:07:32.576Z,57.87
2022-09-26T05:09:36.222Z,57.96
2022-09-26T05:11:45.485Z,58.01
2022-09-26T05:13:53.766Z,58.12
2022-09-26T05:16:00.116Z,58.14
2022-09-26T05:18:02.485Z,58.17
2022-09-26T05:20:10.811Z,58.01
2022-09-26T05:22:34.817Z,58.13
2022-09-26T05:24:56.408Z,57.94
2022-09-26T05:26:58.138Z,57.87
2022-09-26T05:29:16.815Z,57.87
2022-09-26T05:31:29.401Z,58.24
2022-09-26T05:33:31.165Z,58.05
2022-09-26T05:35:36.406Z,58.01
2022-09-26T05:37:38.308Z,58.16
2022-09-26T05:40:01.766Z,58.09
2022-09-26T05:42:05.904Z,58.07
2022-09-26T05:44:07.847Z,58.21
2022-09-26T05:46:11.972Z,58.22
2022-09-26T05:48:20.821Z,58.00
2022-09-26T05:50:24.689Z,58.25
2022-09-26T05:52:30.204Z,58.24
2022-09-26T05:54:35.004Z,58.03
2022-09-26T05:56:56.372Z,58.30
2022-09-26T05:59:00.759Z,57.96
2022-09-26T06:01:21.184Z,58.39
2022-09-26T06:03:34.735Z,58.14
2022-09-26T06:05:45.429Z,58.43
2022-09-26T06:07:49.987Z,58.19
2022-09-26T06:10:08.668Z,58.20
2022-09-26T06:12:28.500Z,58.23
2022-09-26T06:14:31.192Z,58.21
2022-09-26T06:16:34.260Z,58.20
2022-09-26T06:18:36.911Z,58.13
2022-09-26T06:20:38.512Z,58.28
2022-09-26T06:22:41.305Z,58.04
2022-09-26T06:24:43.264Z,58.25
2022-09-26T06:26:47.322Z,58.01
2022-09-26T06:28:54.886Z,58.01
2022-09-26T06:30:57.603Z,58.05
2022-09-26T06:33:23.105Z,58.12
2022-09-26T06:35:47.824Z,58.32
2022-09-26T06:37:58.974Z,58.35
2022-09-26T06:40:00.957Z,58.36
2022-09-26T06:42:07.335Z,58.41
2022-09-26T06:44:29.876Z,58.63
2022-09-26T06:46:50.000Z,58.86
2022-09-26T06:48:57.832Z,58.69
2022-09-26T06:51:26.824Z,58.50
2022-09-26T06:53:28.563Z,58.71
2022-09-26T06:55:32.575Z,58.52
2022-09-26T06:57:42.604Z,58.51
2022-09-26T06:59:44.618Z,58.63
2022-09-26T07:01:56.624Z,58.48
2022-09-26T07:04:29.801Z,58.28
2022-09-26T07:06:42.424Z,58.22
2022-09-26T07:09:01.363Z,58.18
2022-09-26T07:12:12.408Z,58.31
2022-09-26T07:14:03.708Z,58.16
2022-09-26T07:16:06.170Z,58.14
2022-09-26T07:18:26.414Z,58.10
2022-09-26T07:20:56.838Z,58.19
2022-09-26T07:23:30.990Z,58.38
2022-09-26T07:25:33.850Z,58.47
2022-09-26T07:27:37.762Z,58.73
2022-09-26T07:29:39.591Z,59.13
2022-09-26T07:31:43.050Z,59.15
2022-09-26T07:33:52.864Z,59.08
2022-09-26T07:35:55.830Z,58.64
2022-09-26T07:37:59.117Z,58.36
2022-09-26T07:40:01.985Z,58.05
2022-09-26T07:42:07.225Z,58.14
2022-09-26T07:46:49.827Z,57.64
2022-09-26T07:49:11.084Z,58.01
2022-09-26T07:51:33.601Z,58.18
2022-09-26T07:53:41.390Z,58.24
2022-09-26T07:56:06.173Z,57.93
2022-09-26T07:58:38.753Z,58.26
2022-09-26T08:01:00.426Z,58.23
2022-09-26T08:03:31.193Z,58.06
2022-09-26T08:05:35.736Z,57.83
2022-09-26T08:07:37.977Z,57.68
2022-09-26T08:09:48.161Z,57.86
2022-09-26T08:12:17.383Z,58.00
2022-09-26T08:14:38.370Z,57.86
2022-09-26T08:16:54.656Z,58.00
2022-09-26T08:18:57.434Z,58.06
2022-09-26T08:21:05.714Z,57.55
2022-09-26T08:23:07.587Z,57.46
2022-09-26T08:25:09.714Z,57.60
2022-09-26T08:27:15.644Z,57.11
2022-09-26T08:29:17.883Z,56.84
2022-09-26T08:31:22.594Z,56.72
2022-09-26T08:33:25.046Z,56.74
2022-09-26T08:35:26.810Z,56.58
2022-09-26T08:37:46.875Z,56.35
2022-09-26T08:40:07.786Z,56.13
2022-09-26T08:43:04.302Z,56.17
2022-09-26T08:46:26.632Z,55.72
2022-09-26T08:49:22.748Z,54.90
2022-09-26T08:51:29.070Z,54.80
2022-09-26T08:53:46.992Z,54.23
2022-09-26T08:55:50.373Z,54.16
2022-09-26T08:58:18.980Z,53.56
2022-09-26T09:00:24.970Z,53.50
2022-09-26T09:02:44.486Z,53.01
2022-09-26T09:04:58.514Z,52.38
2022-09-26T09:07:10.581Z,52.53
2022-09-26T09:09:17.108Z,51.92
2022-09-26T09:11:51.988Z,51.52
2022-09-26T09:14:23.230Z,51.85
2022-09-26T09:17:17.640Z,50.60
2022-09-26T09:19:53.361Z,50.73
2022-09-26T09:22:33.187Z,50.49
2022-09-26T09:25:03.655Z,50.35
2022-09-26T09:27:53.400Z,49.92
2022-09-26T09:30:31.306Z,50.13
2022-09-26T09:32:45.421Z,50.20
2022-09-26T09:34:57.155Z,50.02
2022-09-26T09:37:24.119Z,49.13
2022-09-26T09:39:36.150Z,49.02
2022-09-26T09:41:52.504Z,48.00
2022-09-26T09:43:59.090Z,47.63
2022-09-26T09:46:29.537Z,47.49
2022-09-26T09:48:31.310Z,47.67
2022-09-26T09:50:51.865Z,47.38
2022-09-26T09:53:22.620Z,46.87
2022-09-26T09:55:51.298Z,47.12
2022-09-26T09:58:11.228Z,46.76
2022-09-26T10:00:20.288Z,47.01
2022-09-26T10:02:53.170Z,46.41
2022-09-26T10:05:16.715Z,46.24
2022-09-26T10:07:19.171Z,46.78
2022-09-26T10:09:43.902Z,46.70
2022-09-26T10:12:17.147Z,46.73
2022-09-26T10:14:48.658Z,46.72
2022-09-26T10:17:24.285Z,47.37
2022-09-26T10:19:40.839Z,47.42
2022-09-26T10:21:47.481Z,47.68
2022-09-26T10:23:50.626Z,47.95
2022-09-26T10:26:16.183Z,48.31
2022-09-26T10:28:29.973Z,48.67
2022-09-26T10:30:46.603Z,48.73
2022-09-26T10:32:56.823Z,48.81
2022-09-26T10:35:24.485Z,48.53
2022-09-26T10:37:30.419Z,48.05
2022-09-26T10:40:11.659Z,47.84
2022-09-26T10:42:22.910Z,47.89
2022-09-26T10:44:33.983Z,48.02
2022-09-26T10:46:46.959Z,47.83
2022-09-26T10:49:23.613Z,47.91
2022-09-26T10:51:57.101Z,48.05
2022-09-26T10:54:04.973Z,48.21
2022-09-26T10:56:17.019Z,47.45
2022-09-26T10:58:22.765Z,47.73
2022-09-26T11:00:49.385Z,47.63
2022-09-26T11:02:54.112Z,47.73
2022-09-26T11:05:19.293Z,47.11
2022-09-26T11:07:52.641Z,46.92
2022-09-26T11:10:17.482Z,47.18
2022-09-26T11:12:32.299Z,47.11
2022-09-26T11:14:45.803Z,46.36
2022-09-26T11:16:47.584Z,46.45
2022-09-26T11:19:09.576Z,45.45
2022-09-26T11:21:33.720Z,44.21
2022-09-26T11:24:02.781Z,44.35
2022-09-26T11:26:17.077Z,44.13
2022-09-26T11:28:34.274Z,44.80
2022-09-26T11:31:01.795Z,44.38
2022-09-26T11:33:13.561Z,44.39
2022-09-26T11:35:44.092Z,43.55
2022-09-26T11:38:08.286Z,42.89
2022-09-26T11:40:41.929Z,41.81
2022-09-26T11:42:55.073Z,42.59
2022-09-26T11:45:04.849Z,42.57
2022-09-26T11:47:50.987Z,42.51
2022-09-26T11:50:23.296Z,42.20
2022-09-26T11:53:04.689Z,41.94
2022-09-26T11:55:24.292Z,42.45
2022-09-26T11:57:44.291Z,41.89
2022-09-26T11:59:48.527Z,42.67
2022-09-26T12:02:04.879Z,42.29
2022-09-26T12:04:18.337Z,42.18
2022-09-26T12:06:33.501Z,42.50
2022-09-26T12:09:01.426Z,42.26
2022-09-26T12:11:15.613Z,42.22
2022-09-26T12:13:41.474Z,42.11
2022-09-26T12:15:45.955Z,42.42
2022-09-26T12:18:15.721Z,41.86
2022-09-26T12:20:31.438Z,42.53
2022-09-26T12:22:51.096Z,42.04
2022-09-26T12:24:58.934Z,41.72
2022-09-26T12:27:14.562Z,42.37
2022-09-26T12:29:32.171Z,42.27
2022-09-26T12:31:52.595Z,42.14
2022-09-26T12:34:12.299Z,42.63
2022-09-26T12:36:25.881Z,42.89
2022-09-26T12:38:42.401Z,43.20
2022-09-26T12:40:59.907Z,42.81
2022-09-26T12:43:33.866Z,43.07
2022-09-26T12:45:58.455Z,43.09
2022-09-26T12:48:35.692Z,43.04
2022-09-26T12:51:03.214Z,43.56
2022-09-26T12:53:28.850Z,43.60
2022-09-26T12:55:51.566Z,43.65
2022-09-26T12:58:30.071Z,43.63
2022-09-26T13:00:40.861Z,44.23
2022-09-26T13:03:11.042Z,44.24
2022-09-26T13:05:37.055Z,44.34
2022-09-26T13:07:46.715Z,44.41
2022-09-26T13:10:17.288Z,44.29
2022-09-26T13:12:46.576Z,44.58
2022-09-26T13:15:02.407Z,44.13
2022-09-26T13:17:10.895Z,44.26
2022-09-26T13:19:54.351Z,44.14
2022-09-26T13:22:02.942Z,44.39
2022-09-26T13:24:13.983Z,44.02
2022-09-26T13:26:33.899Z,44.12
2022-09-26T13:29:00.503Z,44.20
2022-09-26T13:31:17.772Z,44.09
2022-09-26T13:33:40.205Z,44.00
2022-09-26T13:35:43.555Z,44.40
2022-09-26T13:38:10.071Z,44.46
2022-09-26T13:40:43.934Z,44.43
2022-09-26T13:42:51.601Z,44.70
2022-09-26T13:45:28.737Z,44.44
2022-09-26T13:47:55.120Z,44.27
2022-09-26T13:49:56.966Z,44.35
2022-09-26T13:52:34.242Z,44.18
2022-09-26T13:54:45.372Z,44.02
2022-09-26T13:56:50.977Z,44.13
2022-09-26T13:59:08.269Z,43.98
2022-09-26T14:01:25.734Z,43.79
2022-09-26T14:03:28.238Z,43.91
2022-09-26T14:05:51.031Z,43.71
2022-09-26T14:08:11.752Z,43.88
2022-09-26T14:10:34.800Z,43.73
2022-09-26T14:13:10.291Z,43.64
2022-09-26T14:15:23.791Z,43.75
2022-09-26T14:17:47.350Z,43.70
2022-09-26T14:19:55.649Z,43.75
2022-09-26T14:22:20.794Z,43.83
2022-09-26T14:24:35.885Z,43.72
2022-09-26T14:27:09.987Z,43.65
2022-09-26T14:29:30.791Z,43.76
2022-09-26T14:31:39.152Z,44.07
2022-09-26T14:33:43.042Z,44.08
2022-09-26T14:35:45.166Z,44.12
2022-09-26T14:37:50.516Z,44.31
2022-09-26T14:40:00.271Z,44.74
2022-09-26T14:42:30.139Z,44.93
2022-09-26T14:44:36.962Z,44.94
2022-09-26T14:46:42.186Z,44.81
2022-09-26T14:48:47.393Z,44.97
2022-09-26T14:51:16.354Z,45.38
2022-09-26T14:53:26.907Z,45.19
2022-09-26T14:55:30.839Z,45.52
2022-09-26T14:57:34.374Z,45.25
2022-09-26T14:59:43.560Z,45.28
2022-09-26T15:01:46.329Z,45.64
2022-09-26T15:04:14.031Z,45.68
2022-09-26T15:06:16.607Z,45.43
2022-09-26T15:08:29.697Z,45.51
2022-09-26T15:10:48.039Z,45.71
2022-09-26T15:13:01.913Z,45.88
2022-09-26T15:15:07.436Z,45.94
2022-09-26T15:17:18.574Z,45.63
2022-09-26T15:19:35.552Z,46.15
2022-09-26T15:21:41.406Z,46.11
2022-09-26T15:23:51.953Z,46.19
2022-09-26T15:26:07.851Z,46.45
2022-09-26T15:28:10.040Z,46.26
2022-09-26T15:30:18.473Z,46.33
2022-09-26T15:32:28.943Z,46.43
2022-09-26T15:34:30.839Z,46.34
2022-09-26T15:36:39.033Z,46.42
2022-09-26T15:38:45.128Z,46.77
2022-09-26T15:41:04.314Z,46.63
2022-09-26T15:43:12.110Z,46.74
2022-09-26T15:45:27.670Z,46.59
2022-09-26T15:47:30.008Z,47.00
2022-09-26T15:49:35.645Z,46.86
2022-09-26T15:51:40.016Z,46.73
2022-09-26T15:54:00.441Z,47.00
2022-09-26T15:56:18.099Z,47.03
2022-09-26T15:58:27.563Z,47.12
2022-09-26T16:00:37.490Z,47.47
2022-09-26T16:02:39.280Z,47.54
2022-09-26T16:04:41.294Z,47.45
2022-09-26T16:06:58.714Z,47.59
2022-09-26T16:09:08.076Z,47.70
2022-09-26T16:11:10.254Z,47.78
2022-09-26T16:13:27.827Z,47.88
2022-09-26T16:15:31.442Z,47.69
2022-09-26T16:17:49.354Z,47.74
2022-09-26T16:19:53.412Z,47.95
2022-09-26T16:21:59.099Z,47.81
2022-09-26T16:24:30.889Z,48.15
2022-09-26T16:26:40.699Z,47.99
2022-09-26T16:28:44.875Z,47.88
2022-09-26T16:31:08.498Z,48.12
2022-09-26T16:33:40.367Z,48.22
2022-09-26T16:35:47.822Z,48.42
2022-09-26T16:38:18.973Z,48.39
2022-09-26T16:40:23.846Z,48.47
2022-09-26T16:42:33.416Z,48.39
2022-09-26T16:44:41.009Z,48.70
2022-09-26T16:46:42.753Z,48.59
2022-09-26T16:48:50.538Z,48.69
2022-09-26T16:51:20.166Z,48.85
2022-09-26T16:53:21.995Z,48.84
2022-09-26T16:55:25.295Z,49.00
2022-09-26T16:57:35.575Z,49.01
2022-09-26T16:59:40.121Z,48.91
2022-09-26T17:01:54.094Z,48.80
2022-09-26T17:03:56.910Z,48.93
2022-09-26T17:06:00.295Z,49.05
2022-09-26T17:08:01.953Z,49.06
2022-09-26T17:10:06.539Z,49.29
2022-09-26T17:12:19.199Z,49.36
2022-09-26T17:14:24.043Z,49.26
2022-09-26T17:16:28.028Z,49.30
2022-09-26T17:18:35.851Z,49.31
2022-09-26T17:20:40.907Z,49.46
2022-09-26T17:22:45.862Z,49.34
2022-09-26T17:24:54.288Z,49.33
2022-09-26T17:26:59.498Z,49.35
2022-09-26T17:29:06.556Z,49.58
2022-09-26T17:31:14.830Z,49.65
2022-09-26T17:33:16.719Z,49.53
2022-09-26T17:35:26.946Z,49.78
2022-09-26T17:37:29.031Z,49.76
2022-09-26T17:39:31.016Z,49.76
2022-09-26T17:41:34.520Z,49.78
2022-09-26T17:43:36.189Z,49.87
2022-09-26T17:45:51.784Z,49.99
2022-09-26T17:47:54.722Z,49.77
2022-09-26T17:49:59.529Z,49.96
2022-09-26T17:52:03.344Z,49.83
2022-09-26T17:54:07.412Z,49.84
2022-09-26T17:56:10.344Z,50.03
2022-09-26T17:58:12.296Z,49.85
2022-09-26T18:00:20.317Z,49.93
2022-09-26T18:02:55.154Z,49.83
2022-09-26T18:05:01.089Z,49.83
2022-09-26T18:07:04.610Z,49.80
2022-09-26T18:09:10.121Z,49.95
2022-09-26T18:11:17.743Z,49.94
2022-09-26T18:13:22.653Z,49.98
2022-09-26T18:15:25.537Z,49.96
2022-09-26T18:17:27.248Z,50.00
2022-09-26T18:19:37.013Z,50.10
2022-09-26T18:21:40.175Z,50.01
2022-09-26T18:23:51.582Z,50.14
2022-09-26T18:25:57.151Z,50.04
2022-09-26T18:28:07.797Z,50.03
2022-09-26T18:30:15.407Z,50.13
2022-09-26T18:32:31.769Z,50.21
2022-09-26T18:34:33.329Z,50.12
2022-09-26T18:36:35.399Z,50.11
2022-09-26T18:38:36.980Z,50.20
2022-09-26T18:40:43.298Z,50.24
2022-09-26T18:42:47.457Z,50.16
2022-09-26T18:44:51.116Z,50.21
2022-09-26T18:46:57.161Z,50.34
2022-09-26T18:49:06.269Z,50.60
2022-09-26T18:51:10.026Z,50.48
2022-09-26T18:53:17.853Z,50.42
2022-09-26T18:55:43.525Z,50.64
2022-09-26T18:58:23.755Z,50.83
2022-09-26T19:00:42.091Z,50.66
2022-09-26T19:02:54.281Z,50.84
2022-09-26T19:04:57.557Z,50.72
2022-09-26T19:07:07.444Z,50.83
2022-09-26T19:09:15.213Z,50.78
2022-09-26T19:11:19.781Z,50.74
2022-09-26T19:13:26.718Z,50.70
2022-09-26T19:15:30.430Z,50.88
2022-09-26T19:17:31.951Z,51.13
2022-09-26T19:19:36.492Z,50.93
2022-09-26T19:21:41.973Z,51.05
2022-09-26T19:23:44.677Z,50.91
2022-09-26T19:25:46.675Z,51.02
2022-09-26T19:27:53.110Z,51.14
2022-09-26T19:30:20.660Z,51.16
2022-09-26T19:32:36.647Z,51.10
2022-09-26T19:34:39.332Z,51.09
2022-09-26T19:36:41.125Z,51.11
2022-09-26T19:38:43.206Z,51.22
2022-09-26T19:40:48.574Z,50.98
2022-09-26T19:42:50.655Z,50.91
2022-09-26T19:44:52.313Z,51.11
2022-09-26T19:47:01.166Z,51.06
2022-09-26T19:49:03.155Z,51.00
2022-09-26T19:51:07.623Z,51.09
2022-09-26T19:53:14.277Z,51.04
2022-09-26T19:55:24.452Z,50.99
2022-09-26T19:57:29.026Z,51.10
2022-09-26T19:59:30.678Z,50.95
2022-09-26T20:01:35.312Z,51.08
2022-09-26T20:03:48.083Z,51.09
2022-09-26T20:05:50.239Z,50.97
2022-09-26T20:07:52.908Z,50.94
2022-09-26T20:09:56.863Z,50.88
2022-09-26T20:11:58.712Z,51.09
2022-09-26T20:14:18.906Z,50.91
2022-09-26T20:16:21.060Z,50.87
2022-09-26T20:18:24.103Z,50.93
2022-09-26T20:20:32.448Z,51.02
2022-09-26T20:22:34.103Z,50.99
2022-09-26T20:24:42.788Z,50.80
2022-09-26T20:26:45.276Z,50.75
2022-09-26T20:28:49.608Z,50.72
2022-09-26T20:30:51.434Z,50.77
2022-09-26T20:32:53.795Z,50.85
2022-09-26T20:35:00.437Z,50.66
2022-09-26T20:37:02.913Z,50.66
2022-09-26T20:39:07.489Z,50.72
2022-09-26T20:41:20.469Z,50.55
2022-09-26T20:43:28.537Z,50.59
2022-09-26T20:45:39.391Z,50.48
2022-09-26T20:47:42.840Z,50.53
2022-09-26T20:49:54.054Z,50.45
2022-09-26T20:51:59.966Z,50.42
2022-09-26T20:54:05.846Z,50.30
2022-09-26T20:56:21.004Z,50.39
2022-09-26T20:58:25.572Z,50.24
2022-09-26T21:00:28.593Z,50.40
2022-09-26T21:02:39.222Z,50.43
2022-09-26T21:04:41.019Z,50.33
2022-09-26T21:06:43.297Z,50.17
2022-09-26T21:08:46.357Z,50.42
2022-09-26T21:10:48.075Z,50.24
2022-09-26T21:12:52.012Z,50.12
2022-09-26T21:15:04.000Z,50.26
2022-09-26T21:17:15.201Z,50.28
2022-09-26T21:19:23.271Z,50.16
2022-09-26T21:21:34.756Z,50.19
2022-09-26T21:23:47.462Z,50.24
2022-09-26T21:25:49.092Z,50.10
2022-09-26T21:27:55.626Z,50.25
2022-09-26T21:29:57.095Z,50.20
2022-09-26T21:32:04.423Z,50.06
2022-09-26T21:34:15.536Z,50.04
2022-09-26T21:36:21.248Z,50.21
2022-09-26T21:38:22.978Z,50.25
2022-09-26T21:40:28.605Z,50.12
2022-09-26T21:42:30.259Z,50.03
2022-09-26T21:44:38.531Z,50.12
2022-09-26T21:46:40.618Z,50.00
2022-09-26T21:48:43.365Z,49.92
2022-09-26T21:50:57.953Z,50.17
2022-09-26T21:53:06.817Z,50.10
2022-09-26T21:55:17.231Z,50.02
2022-09-26T21:57:23.782Z,50.06
2022-09-26T21:59:29.345Z,50.09
2022-09-26T22:01:31.165Z,50.02
2022-09-26T22:03:33.239Z,50.00
2022-09-26T22:05:37.233Z,50.01
2022-09-26T22:07:38.866Z,49.96
2022-09-26T22:09:40.303Z,49.97
2022-09-26T22:11:41.920Z,50.10
2022-09-26T22:13:43.562Z,50.36
2022-09-26T22:15:45.373Z,50.09
2022-09-26T22:17:47.416Z,50.12
2022-09-26T22:19:53.048Z,50.22
2022-09-26T22:21:54.855Z,50.09
2022-09-26T22:23:58.925Z,50.25
2022-09-26T22:26:01.136Z,50.26
2022-09-26T22:28:02.881Z,50.22
2022-09-26T22:30:12.124Z,50.18
2022-09-26T22:32:13.876Z,50.08
2022-09-26T22:34:15.768Z,50.29
2022-09-26T22:36:19.830Z,50.21
2022-09-26T22:38:21.555Z,50.17
2022-09-26T22:40:23.339Z,50.10
2022-09-26T22:42:25.040Z,50.18
2022-09-26T22:44:26.735Z,50.18
2022-09-26T22:46:28.712Z,50.23
2022-09-26T22:48:32.484Z,50.28
2022-09-26T22:50:34.593Z,50.28
2022-09-26T22:52:36.191Z,50.55
2022-09-26T22:54:46.675Z,50.39
2022-09-26T22:56:51.013Z,50.38
2022-09-26T22:58:55.238Z,50.38
2022-09-26T23:01:01.269Z,50.48
2022-09-26T23:03:03.015Z,50.38
2022-09-26T23:05:04.888Z,50.47
2022-09-26T23:07:06.513Z,50.45
2022-09-26T23:09:08.099Z,50.40
2022-09-26T23:11:11.879Z,50.47
2022-09-26T23:13:13.324Z,50.39
2022-09-26T23:15:15.295Z,50.31
2022-09-26T23:17:17.018Z,50.43
2022-09-26T23:19:21.263Z,50.62
2022-09-26T23:21:25.632Z,50.67
2022-09-26T23:23:27.222Z,50.62
2022-09-26T23:25:28.952Z,50.49
2022-09-26T23:27:30.402Z,50.66
2022-09-26T23:29:32.388Z,50.67
2022-09-26T23:31:38.689Z,50.88
2022-09-26T23:33:40.202Z,50.86
2022-09-26T23:35:49.102Z,50.92
2022-09-26T23:37:50.671Z,51.21
2022-09-26T23:39:52.799Z,51.14
2022-09-26T23:41:54.455Z,51.22
2022-09-26T23:43:56.107Z,51.14
2022-09-26T23:45:57.828Z,51.28
2022-09-26T23:47:59.387Z,51.25
2022-09-26T23:50:00.871Z,51.18
2022-09-26T23:52:02.741Z,51.47
2022-09-26T23:54:04.425Z,51.32
2022-09-26T23:56:09.001Z,51.43
2022-09-26T23:58:16.694Z,51.56
